createdAt,value
2019-03-15T00:01:53.731Z,14.25
2019-03-15T00:04:22.750Z,6.03
2019-03-15T00:06:51.928Z,3.25
2019-03-15T00:09:21.117Z,11.38
2019-03-15T00:11:50.213Z,6.60
2019-03-15T00:14:19.188Z,9.00
2019-03-15T00:16:48.154Z,8.83
2019-03-15T00:19:17.190Z,10.85
2019-03-15T00:21:46.128Z,8.73
2019-03-15T00:24:15.267Z,8.13
2019-03-15T00:26:44.285Z,8.85
2019-03-15T00:29:13.191Z,5.87
2019-03-15T00:31:42.154Z,7.03
2019-03-15T00:34:11.393Z,9.30
2019-03-15T00:36:40.329Z,5.72
2019-03-15T00:39:09.847Z,7.10
2019-03-15T00:41:38.799Z,8.18
2019-03-15T00:44:07.922Z,9.05
2019-03-15T00:46:36.877Z,4.67
2019-03-15T00:49:05.832Z,6.40
2019-03-15T00:51:34.729Z,7.95
2019-03-15T00:54:03.677Z,4.72
2019-03-15T00:56:32.699Z,5.78
2019-03-15T00:59:01.650Z,7.55
2019-03-15T01:01:30.591Z,6.95
2019-03-15T01:03:59.556Z,4.75
2019-03-15T01:06:28.521Z,4.25
2019-03-15T01:08:57.486Z,2.77
2019-03-15T01:11:26.418Z,6.92
2019-03-15T01:13:55.322Z,5.90
2019-03-15T01:16:24.468Z,4.17
2019-03-15T01:18:53.354Z,6.03
2019-03-15T01:21:22.299Z,6.50
2019-03-15T01:23:51.324Z,7.85
2019-03-15T01:26:20.349Z,6.85
2019-03-15T01:28:49.293Z,5.75
2019-03-15T01:31:18.200Z,7.72
2019-03-15T01:33:47.195Z,8.95
2019-03-15T01:36:18.890Z,6.65
2019-03-15T01:38:47.829Z,7.20
2019-03-15T01:41:16.944Z,9.63
2019-03-15T01:43:45.892Z,10.98
2019-03-15T01:46:14.843Z,4.87
2019-03-15T01:48:43.805Z,7.20
2019-03-15T01:51:12.873Z,5.05
2019-03-15T01:53:41.820Z,10.55
2019-03-15T01:56:10.725Z,8.05
2019-03-15T01:58:39.706Z,8.00
2019-03-15T02:01:08.649Z,5.05
2019-03-15T02:03:37.614Z,7.97
2019-03-15T02:06:06.593Z,6.97
2019-03-15T02:08:35.501Z,5.50
2019-03-15T02:11:04.699Z,4.78
2019-03-15T02:13:33.655Z,7.40
2019-03-15T02:16:02.606Z,6.75
2019-03-15T02:18:31.482Z,5.22
2019-03-15T02:21:00.423Z,6.60
2019-03-15T02:23:29.430Z,7.87
2019-03-15T02:25:58.397Z,11.15
2019-03-15T02:28:27.464Z,8.48
2019-03-15T02:30:56.380Z,5.42
2019-03-15T02:33:25.374Z,7.35
2019-03-15T02:35:54.311Z,9.13
2019-03-15T02:38:23.322Z,11.50
2019-03-15T02:40:52.408Z,7.08
2019-03-15T02:43:21.385Z,5.55
2019-03-15T02:45:50.342Z,4.83
2019-03-15T02:48:19.700Z,6.53
2019-03-15T02:50:48.591Z,5.80
2019-03-15T02:53:17.590Z,6.10
2019-03-15T02:55:48.310Z,4.25
2019-03-15T02:58:17.410Z,10.68
2019-03-15T03:00:46.434Z,3.45
2019-03-15T03:03:15.403Z,5.62
2019-03-15T03:05:44.293Z,5.42
2019-03-15T03:08:14.187Z,9.98
2019-03-15T03:10:43.514Z,11.10
2019-03-15T03:13:12.424Z,5.80
2019-03-15T03:15:41.374Z,4.05
2019-03-15T03:18:10.417Z,8.05
2019-03-15T03:20:39.357Z,4.17
2019-03-15T03:23:08.322Z,5.42
2019-03-15T03:25:37.247Z,6.25
2019-03-15T03:28:06.270Z,8.28
2019-03-15T03:30:35.250Z,4.12
2019-03-15T03:33:04.219Z,4.62
2019-03-15T03:35:33.176Z,4.65
2019-03-15T03:38:02.111Z,3.30
2019-03-15T03:40:31.254Z,1.82
2019-03-15T03:43:00.206Z,6.15
2019-03-15T03:45:29.120Z,6.65
2019-03-15T03:48:00.841Z,4.47
2019-03-15T03:50:30.569Z,3.00
2019-03-15T03:52:59.550Z,5.42
2019-03-15T03:55:28.529Z,6.12
2019-03-15T03:57:57.612Z,6.05
2019-03-15T04:00:26.718Z,1.80
2019-03-15T04:02:55.665Z,2.50
2019-03-15T04:05:24.561Z,4.15
2019-03-15T04:07:53.520Z,3.02
2019-03-15T04:10:22.396Z,2.05
2019-03-15T04:12:51.346Z,3.40
2019-03-15T04:15:20.244Z,2.30
2019-03-15T04:17:49.183Z,3.22
2019-03-15T04:20:18.095Z,5.45
2019-03-15T04:22:47.094Z,0.85
2019-03-15T04:25:15.958Z,1.15
2019-03-15T04:27:44.936Z,4.72
2019-03-15T04:30:14.451Z,1.12
2019-03-15T04:32:43.354Z,3.37
2019-03-15T04:35:12.301Z,2.65
2019-03-15T04:37:41.306Z,1.72
2019-03-15T04:40:11.856Z,6.20
2019-03-15T04:42:40.855Z,1.77
2019-03-15T04:45:09.913Z,1.32
2019-03-15T04:47:38.856Z,1.75
2019-03-15T04:50:08.599Z,5.03
2019-03-15T04:52:37.488Z,2.15
2019-03-15T04:55:07.066Z,1.20
2019-03-15T04:57:35.983Z,1.87
2019-03-15T05:00:09.859Z,0.88
2019-03-15T05:02:38.894Z,1.62
2019-03-15T05:05:07.889Z,0.70
2019-03-15T05:07:36.840Z,2.25
2019-03-15T05:10:08.246Z,0.20
2019-03-15T05:12:37.282Z,1.15
2019-03-15T05:15:09.188Z,0.95
2019-03-15T05:17:38.161Z,1.17
2019-03-15T05:20:09.042Z,0.53
2019-03-15T05:22:38.004Z,0.55
2019-03-15T05:25:08.412Z,0.25
2019-03-15T05:27:37.361Z,0.33
2019-03-15T05:30:09.570Z,0.28
2019-03-15T05:32:38.469Z,0.10
2019-03-15T05:35:07.759Z,0.20
2019-03-15T05:37:36.674Z,0.95
2019-03-15T05:40:07.526Z,0.20
2019-03-15T05:42:55.695Z,0.10
2019-03-15T05:45:24.722Z,0.10
2019-03-15T05:47:55.217Z,0.10
2019-03-15T05:50:28.332Z,0.08
2019-03-15T05:52:58.189Z,0.10
2019-03-15T05:55:27.112Z,0.20
2019-03-15T05:57:56.061Z,0.00
2019-03-15T06:00:24.969Z,0.00
2019-03-15T06:03:02.645Z,0.00
2019-03-15T06:05:44.863Z,0.10
2019-03-15T06:08:29.064Z,0.10
2019-03-15T06:11:09.627Z,0.10
2019-03-15T06:13:36.286Z,0.10
2019-03-15T06:16:05.185Z,0.10
2019-03-15T06:18:34.198Z,0.10
2019-03-15T06:21:03.383Z,0.20
2019-03-15T06:23:32.436Z,0.00
2019-03-15T06:26:01.504Z,0.10
2019-03-15T06:32:42.460Z,0.10
2019-03-15T06:35:19.618Z,0.10
2019-03-15T06:37:49.657Z,0.10
2019-03-15T06:43:01.641Z,0.10
2019-03-15T06:45:32.651Z,0.10
2019-03-15T06:48:02.749Z,0.10
2019-03-15T06:50:32.943Z,0.10
2019-03-15T06:53:03.033Z,0.10
2019-03-15T06:55:33.401Z,1.25
2019-03-15T06:58:03.745Z,0.45
2019-03-15T07:00:33.898Z,1.05
2019-03-15T07:03:03.619Z,0.53
2019-03-15T07:05:36.688Z,0.20
2019-03-15T07:08:07.386Z,0.30
2019-03-15T07:13:43.346Z,1.25
2019-03-15T07:16:22.781Z,0.03
2019-03-15T07:18:52.496Z,0.10
2019-03-15T07:21:22.159Z,0.10
2019-03-15T07:30:17.365Z,0.10
2019-03-15T07:33:14.624Z,0.10
2019-03-15T07:36:28.365Z,0.10
2019-03-15T07:38:57.368Z,0.17
2019-03-15T07:41:40.018Z,0.15
2019-03-15T07:44:20.303Z,0.20
2019-03-15T07:46:51.223Z,0.30
2019-03-15T07:49:20.574Z,0.13
2019-03-15T07:58:30.306Z,0.33
2019-03-15T08:00:59.484Z,0.15
2019-03-15T08:07:09.053Z,0.10
2019-03-15T08:09:37.964Z,0.15
2019-03-15T08:15:26.692Z,0.78
2019-03-15T08:23:15.973Z,0.53
2019-03-15T08:24:24.400Z,0.70
2019-03-15T08:25:46.732Z,0.10
2019-03-15T08:28:15.765Z,0.10
2019-03-15T08:30:44.768Z,0.15
2019-03-15T08:33:13.944Z,0.10
2019-03-15T08:35:43.096Z,0.10
2019-03-15T08:42:12.345Z,0.03
2019-03-15T08:44:41.339Z,0.00
2019-03-15T08:50:52.511Z,0.10
2019-03-15T08:53:16.963Z,0.10
2019-03-15T08:55:45.991Z,0.00
2019-03-15T09:01:42.192Z,0.45
2019-03-15T09:04:11.144Z,0.10
2019-03-15T09:16:18.886Z,1.20
2019-03-15T09:18:48.021Z,0.82
2019-03-15T09:21:19.894Z,0.45
2019-03-15T09:23:52.431Z,0.20
2019-03-15T09:26:23.292Z,0.00
2019-03-15T09:29:11.244Z,0.00
2019-03-15T09:34:43.919Z,0.00
2019-03-15T09:37:20.286Z,0.10
2019-03-15T09:40:16.736Z,0.00
2019-03-15T09:42:44.378Z,0.17
2019-03-15T09:45:17.992Z,0.20
2019-03-15T09:47:47.579Z,0.47
2019-03-15T09:50:26.384Z,1.25
2019-03-15T09:53:09.690Z,0.20
2019-03-15T10:01:34.841Z,0.30
2019-03-15T10:03:53.090Z,0.98
2019-03-15T10:06:26.275Z,0.90
2019-03-15T10:08:55.334Z,1.50
2019-03-15T10:11:35.258Z,0.35
2019-03-15T10:14:04.579Z,0.17
2019-03-15T10:16:33.733Z,0.20
2019-03-15T10:19:02.809Z,0.30
2019-03-15T10:21:33.501Z,1.12
2019-03-15T10:24:02.571Z,1.75
2019-03-15T10:29:57.106Z,0.20
2019-03-15T10:32:28.513Z,0.57
2019-03-15T10:35:27.359Z,0.95
2019-03-15T10:37:56.525Z,1.60
2019-03-15T10:40:25.974Z,1.05
2019-03-15T10:43:07.484Z,2.60
2019-03-15T10:48:29.153Z,0.90
2019-03-15T10:51:45.470Z,1.42
2019-03-15T10:54:13.581Z,0.88
2019-03-15T10:56:42.539Z,0.30
2019-03-15T10:59:16.546Z,0.30
2019-03-15T11:01:45.565Z,1.07
2019-03-15T11:04:14.897Z,0.55
2019-03-15T11:06:43.883Z,0.90
2019-03-15T11:09:12.986Z,1.22
2019-03-15T11:11:42.141Z,1.85
2019-03-15T11:14:12.786Z,0.42
2019-03-15T11:16:41.754Z,2.60
2019-03-15T11:19:22.778Z,0.68
2019-03-15T11:21:51.934Z,1.60
2019-03-15T11:24:21.309Z,0.95
2019-03-15T11:26:50.312Z,0.40
2019-03-15T11:29:19.328Z,2.00
2019-03-15T11:31:48.523Z,3.00
2019-03-15T11:34:17.608Z,1.80
2019-03-15T11:36:57.911Z,0.85
2019-03-15T11:39:17.552Z,0.82
2019-03-15T11:41:56.718Z,2.92
2019-03-15T11:44:25.802Z,1.65
2019-03-15T11:46:54.876Z,1.67
2019-03-15T11:49:28.005Z,2.35
2019-03-15T11:52:16.802Z,0.20
2019-03-15T11:54:49.592Z,0.37
2019-03-15T12:00:15.774Z,0.30
2019-03-15T12:02:44.937Z,0.93
2019-03-15T12:05:14.822Z,0.45
2019-03-15T12:11:03.524Z,1.00
2019-03-15T12:13:32.569Z,4.10
2019-03-15T12:16:01.634Z,1.60
2019-03-15T12:18:32.272Z,2.52
2019-03-15T12:21:25.117Z,2.37
2019-03-15T12:27:22.519Z,0.72
2019-03-15T12:29:51.978Z,1.27
2019-03-15T12:32:23.602Z,2.47
2019-03-15T12:34:52.189Z,1.57
2019-03-15T12:46:56.580Z,1.47
2019-03-15T12:49:45.880Z,1.27
2019-03-15T12:52:15.248Z,0.30
2019-03-15T12:57:51.674Z,0.35
2019-03-15T13:00:21.389Z,0.60
2019-03-15T13:02:50.658Z,1.32
2019-03-15T13:05:19.895Z,1.07
2019-03-15T13:07:49.046Z,0.68
2019-03-15T13:10:22.682Z,0.72
2019-03-15T13:12:51.937Z,1.52
2019-03-15T13:15:20.921Z,1.65
2019-03-15T13:17:49.836Z,1.75
2019-03-15T13:20:19.396Z,1.87
2019-03-15T13:22:48.337Z,1.70
2019-03-15T13:25:17.310Z,1.67
2019-03-15T13:27:46.224Z,1.10
2019-03-15T13:30:18.586Z,1.75
2019-03-15T13:32:47.458Z,1.05
2019-03-15T13:35:16.383Z,1.67
2019-03-15T13:37:45.365Z,1.55
2019-03-15T13:40:15.552Z,3.40
2019-03-15T13:42:44.501Z,1.72
2019-03-15T13:45:14.663Z,1.85
2019-03-15T13:47:43.791Z,1.27
2019-03-15T13:50:21.222Z,0.72
2019-03-15T13:52:50.173Z,1.02
2019-03-15T13:55:19.163Z,1.40
2019-03-15T13:57:48.059Z,2.42
2019-03-15T14:00:20.402Z,1.27
2019-03-15T14:02:49.367Z,0.93
2019-03-15T14:05:18.333Z,1.72
2019-03-15T14:07:47.269Z,2.15
2019-03-15T14:10:16.972Z,1.02
2019-03-15T14:12:46.064Z,2.98
2019-03-15T14:15:16.685Z,3.20
2019-03-15T14:17:45.587Z,2.25
2019-03-15T14:20:14.683Z,1.20
2019-03-15T14:22:43.682Z,1.35
2019-03-15T14:25:15.398Z,1.10
2019-03-15T14:27:44.311Z,0.40
2019-03-15T14:30:14.175Z,0.42
2019-03-15T14:32:43.070Z,2.42
2019-03-15T14:35:12.097Z,1.32
2019-03-15T14:37:41.067Z,3.35
2019-03-15T14:40:11.759Z,10.08
2019-03-15T14:42:41.209Z,2.15
2019-03-15T14:45:12.269Z,2.52
2019-03-15T14:47:41.253Z,0.57
2019-03-15T14:50:11.378Z,1.42
2019-03-15T14:52:40.444Z,0.57
2019-03-15T14:55:13.501Z,0.95
2019-03-15T14:57:51.806Z,1.37
2019-03-15T15:00:20.537Z,0.13
2019-03-15T15:02:49.556Z,0.30
2019-03-15T15:05:18.470Z,0.35
2019-03-15T15:07:47.410Z,0.55
2019-03-15T15:10:19.559Z,0.17
2019-03-15T15:12:48.504Z,1.65
2019-03-15T15:15:19.863Z,1.05
2019-03-15T15:17:49.018Z,1.12
2019-03-15T15:20:17.944Z,1.45
2019-03-15T15:22:56.418Z,1.22
2019-03-15T15:25:43.259Z,0.45
2019-03-15T15:28:11.404Z,0.47
2019-03-15T15:30:40.342Z,0.20
2019-03-15T15:33:09.287Z,0.78
2019-03-15T15:35:41.470Z,1.15
2019-03-15T15:38:08.889Z,0.50
2019-03-15T15:40:37.839Z,0.10
2019-03-15T15:43:06.884Z,0.10
2019-03-15T15:45:35.812Z,0.10
2019-03-15T15:48:04.783Z,0.00
2019-03-15T15:50:33.698Z,0.20
2019-03-15T15:53:02.669Z,0.90
2019-03-15T15:55:31.573Z,0.10
2019-03-15T15:58:00.563Z,0.20
2019-03-15T16:00:29.483Z,0.62
2019-03-15T16:02:58.456Z,0.33
2019-03-15T16:05:27.370Z,1.55
2019-03-15T16:07:56.781Z,0.62
2019-03-15T16:10:25.853Z,0.10
2019-03-15T16:12:54.745Z,0.15
2019-03-15T16:15:23.727Z,0.65
2019-03-15T16:17:52.651Z,0.20
2019-03-15T16:20:21.758Z,0.10
2019-03-15T16:22:50.862Z,0.30
2019-03-15T16:25:19.986Z,0.30
2019-03-15T16:27:49.192Z,1.22
2019-03-15T16:30:55.229Z,0.40
2019-03-15T16:34:00.838Z,0.40
2019-03-15T16:37:05.883Z,0.85
2019-03-15T16:39:45.494Z,0.10
2019-03-15T16:48:27.893Z,0.10
2019-03-15T16:51:19.113Z,0.20
2019-03-15T16:53:39.448Z,1.92
2019-03-15T16:56:08.538Z,0.30
2019-03-15T16:58:45.674Z,0.70
2019-03-15T17:01:23.002Z,2.67
2019-03-15T17:03:52.619Z,1.17
2019-03-15T17:06:21.817Z,2.55
2019-03-15T17:08:51.422Z,1.85
2019-03-15T17:11:51.905Z,1.90
2019-03-15T17:14:25.329Z,0.65
2019-03-15T17:20:10.446Z,2.20
2019-03-15T17:22:39.750Z,1.42
2019-03-15T17:25:12.749Z,2.70
2019-03-15T17:31:11.853Z,2.62
2019-03-15T17:37:06.677Z,3.22
2019-03-15T17:39:28.259Z,1.40
2019-03-15T17:53:01.880Z,1.57
2019-03-15T17:55:11.193Z,1.27
2019-03-15T17:57:40.175Z,1.12
2019-03-15T18:00:48.414Z,4.47
2019-03-15T18:04:10.017Z,4.33
2019-03-15T18:06:26.316Z,2.02
2019-03-15T18:08:55.446Z,3.20
2019-03-15T18:11:58.874Z,1.72
2019-03-15T18:14:27.557Z,3.55
2019-03-15T18:24:22.355Z,2.15
2019-03-15T18:26:51.448Z,5.17
2019-03-15T18:29:26.212Z,2.22
2019-03-15T18:31:52.457Z,2.42
2019-03-15T18:34:21.450Z,3.55
2019-03-15T18:36:50.525Z,2.35
2019-03-15T18:39:19.606Z,3.67
2019-03-15T18:48:44.887Z,3.95
2019-03-15T18:50:51.818Z,4.75
2019-03-15T18:53:22.269Z,7.15
2019-03-15T19:02:32.136Z,10.75
2019-03-15T19:05:14.889Z,4.92
2019-03-15T19:07:45.063Z,4.35
2019-03-15T19:10:16.430Z,5.00
2019-03-15T19:12:45.451Z,5.17
2019-03-15T19:15:30.163Z,6.03
2019-03-15T19:18:02.006Z,6.12
2019-03-15T19:20:32.414Z,3.90
2019-03-15T19:23:12.354Z,9.28
2019-03-15T19:26:11.434Z,5.20
2019-03-15T19:28:38.471Z,7.75
2019-03-15T19:31:08.436Z,5.10
2019-03-15T19:33:39.751Z,2.35
2019-03-15T19:36:09.912Z,7.55
2019-03-15T19:38:39.663Z,2.95
2019-03-15T19:41:09.417Z,3.55
2019-03-15T19:43:39.358Z,5.30
2019-03-15T19:46:09.609Z,5.80
2019-03-15T19:48:42.272Z,4.55
2019-03-15T19:51:12.179Z,5.85
2019-03-15T19:53:42.124Z,3.22
2019-03-15T19:56:11.733Z,5.62
2019-03-15T19:58:41.551Z,1.12
2019-03-15T20:01:11.913Z,5.30
2019-03-15T20:07:01.892Z,6.00
2019-03-15T20:09:31.902Z,4.35
2019-03-15T20:12:01.917Z,3.67
2019-03-15T20:14:34.964Z,7.65
2019-03-15T20:17:05.373Z,4.97
2019-03-15T20:19:35.780Z,2.42
2019-03-15T20:25:21.416Z,6.45
2019-03-15T20:35:06.989Z,3.00
2019-03-15T20:43:09.759Z,6.70
2019-03-15T20:45:57.186Z,11.00
2019-03-15T20:48:38.786Z,13.68
2019-03-15T20:51:11.484Z,19.50
2019-03-15T20:53:41.344Z,14.60
2019-03-15T20:56:10.501Z,11.73
2019-03-15T21:07:59.610Z,12.18
2019-03-15T21:10:29.878Z,7.17
2019-03-15T21:13:04.960Z,7.58
2019-03-15T21:16:01.734Z,6.12
2019-03-15T21:22:08.410Z,4.62
2019-03-15T21:24:38.426Z,5.00
2019-03-15T21:30:48.612Z,3.10
2019-03-15T21:33:21.917Z,4.35
2019-03-15T21:35:52.480Z,6.58
2019-03-15T21:38:22.877Z,6.70
2019-03-15T21:40:52.980Z,8.28
2019-03-15T21:47:17.230Z,8.58
2019-03-15T21:49:47.467Z,5.75
2019-03-15T22:01:54.423Z,4.80
2019-03-15T22:04:23.406Z,5.20
2019-03-15T22:06:57.929Z,5.62
2019-03-15T22:09:26.826Z,4.45
2019-03-15T22:12:46.345Z,4.42
2019-03-15T22:15:16.697Z,5.50
2019-03-15T22:18:28.253Z,3.52
2019-03-15T22:20:58.284Z,6.85
2019-03-15T22:23:36.483Z,6.72
2019-03-15T22:26:07.814Z,5.62
2019-03-15T22:28:36.814Z,4.70
2019-03-15T22:31:36.083Z,5.60
2019-03-15T22:34:25.209Z,3.90
2019-03-15T22:36:56.802Z,8.70
2019-03-15T22:39:27.124Z,5.67
2019-03-15T22:42:57.992Z,4.40
2019-03-15T22:45:25.193Z,2.70
2019-03-15T22:47:55.350Z,9.33
2019-03-15T22:50:25.567Z,4.85
2019-03-15T22:52:56.765Z,5.35
2019-03-15T22:55:26.980Z,4.62
2019-03-15T23:00:47.608Z,4.87
2019-03-15T23:03:16.758Z,2.80
2019-03-15T23:05:45.661Z,2.37
2019-03-15T23:08:14.683Z,4.40
2019-03-15T23:10:46.918Z,3.67
2019-03-15T23:13:14.156Z,3.02
2019-03-15T23:15:43.154Z,5.85
2019-03-15T23:18:13.170Z,4.72
2019-03-15T23:20:42.553Z,5.83
2019-03-15T23:26:50.061Z,2.65
2019-03-15T23:29:18.978Z,4.10
2019-03-15T23:32:37.926Z,4.25
2019-03-15T23:34:58.297Z,6.47
2019-03-15T23:40:29.605Z,3.85
2019-03-15T23:42:58.561Z,6.78
2019-03-15T23:45:27.592Z,7.12
2019-03-15T23:50:54.969Z,3.22
2019-03-15T23:53:43.822Z,6.00
2019-03-15T23:56:12.786Z,6.83
2019-03-15T23:58:41.774Z,3.90
